Flight Track Log - Related Links

Times and Time Zones

All times are in EDT time to prevent confusion due to time zone crossing. See the UAL3746 flight status page for this flight to view local times or setup timezone preferences in your user account.

Time Position Orientation Groundspeed Altitude Reporting Facility
EDT Latitude Longitude Course Direction KTS MPH feet Rate Location/Type
Fri 12:34:50 PM 38.9667 -77.4333 360° North 158 182 1,800  Level Potomac TRACON
Fri 12:35:45 PM 39.0167 -77.4333 360° North 206 237 3,700 2,296 Climbing Potomac TRACON
Fri 12:36:45 PM 39.0833 -77.4500 349° North 254 292 6,200 2,667 Climbing Potomac TRACON
Fri 12:37:51 PM 39.1667 -77.3833 32° Northeast 309 356 9,300 2,029 Climbing Potomac TRACON
Fri 12:40:12 PM 39.1100 -77.1189 105° East 362 417 13,200 1,731 Climbing Washington Center
Fri 12:41:12 PM 39.0783 -76.9819 107° East 376 433 15,100 2,339 Climbing Washington Center
Fri 12:42:10 PM 39.0925 -76.8325 83° East 396 456 17,800 2,441 Climbing Washington Center
Fri 12:43:10 PM 39.1064 -76.6883 83° East 396 456 19,900 2,033 Climbing Washington Center
Fri 12:44:11 PM 39.1203 -76.5361 83° East 412 474 21,900 1,537 Climbing Washington Center
Fri 12:45:11 PM 39.1358 -76.3783 83° East 425 489 23,000 545 Climbing Washington Center
Fri 12:46:12 PM 39.1494 -76.2206 84° East 437 503 23,000  Level Washington Center
Fri 12:47:10 PM 39.1750 -76.0494 79° East 437 503 23,000  Level Washington Center
Fri 12:48:11 PM 39.1944 -75.8942 81° East 437 503 23,000 344 Level Washington Center
Fri 12:49:12 PM 39.2717 -75.7767 50° Northeast 416 479 23,700 992 Climbing Washington Center
Fri 12:50:12 PM 39.3614 -75.6586 45° Northeast 426 490 25,000 1,068 Climbing Washington Center
Fri 12:51:10 PM 39.4553 -75.5406 44° Northeast 449 517 25,800 814 Climbing Washington Center
Fri 12:52:10 PM 39.5572 -75.4086 45° Northeast 480 552 26,600 886 Climbing Washington Center
Fri 12:54:06 PM 39.7422 -75.1553 46° Northeast 543 625 28,400 989 Climbing New York Center
Fri 12:55:06 PM 39.8436 -75.0075 48° Northeast 548 631 29,500 1,450 Climbing New York Center
Fri 12:56:06 PM 39.9467 -74.8647 47° Northeast 548 631 31,300 1,450 Climbing New York Center
Fri 12:57:06 PM 40.0603 -74.7114 46° Northeast 543 625 32,400 850 Climbing New York Center
Fri 12:58:06 PM 40.1589 -74.5678 48° Northeast 537 618 33,000 300 Climbing New York Center
Fri 12:59:06 PM 40.2303 -74.4139 59° Northeast 543 625 33,000 -303 Level New York Center
Fri 01:00:05 PM 40.2900 -74.2347 66° East 530 610 32,400 -1,350 Descending New York Center
Fri 01:01:06 PM 40.3536 -74.0528 65° Northeast 535 616 30,300 -1,964 Descending New York Center
Fri 01:02:50 PM 40.4633 -73.7219 66° East 546 628 27,000 -1,207 Descending Boston Center
Fri 01:03:50 PM 40.5214 -73.5403 67° East 546 628 27,000 -200 Level Boston Center
Fri 01:04:50 PM 40.5814 -73.3636 66° East 531 611 26,600 -1,240 Descending Boston Center
Fri 01:05:51 PM 40.6369 -73.1839 68° East 525 604 24,500 -2,033 Descending Boston Center
Fri 01:06:51 PM 40.6922 -73.0150 67° East 520 598 22,500 -1,884 Descending Boston Center
Fri 01:07:52 PM 40.7408 -72.8756 65° Northeast 484 557 20,700 -1,866 Descending Boston Center
Fri 01:08:50 PM 40.7911 -72.7169 67° East 467 537 18,800 -1,831 Descending Boston Center
Fri 01:09:50 PM 40.8478 -72.5361 67° East 467 537 17,100 -1,650 Descending Boston Center
Fri 01:10:50 PM 40.8958 -72.3825 67° East 467 537 15,500 -1,714 Descending Boston Center
Fri 01:11:21 PM 40.9228 -72.3111 63° Northeast 450 518 14,500 -1,672 Descending Boston Center
Fri 01:11:51 PM 40.9436 -72.2367 70° East 451 519 13,800 -1,667 Descending Boston Center
Fri 01:11:57 PM 40.9497 -72.2231 59° Northeast 427 491 13,500 -1,500 Descending Boston Center
Fri 01:12:51 PM 40.9869 -72.1075 67° East 432 497 12,300 -1,412 Descending Boston Center
Fri 01:13:05 PM 41.0036 -72.0689 60° Northeast 421 484 11,900 -1,424 Descending Boston Center
Fri 01:13:50 PM 41.0344 -71.9694 68° East 421 484 10,900 -1,545 Descending Boston Center
Fri 01:14:11 PM 41.0592 -71.9117 60° Northeast 409 471 10,200 -640 Descending Boston Center
Fri 01:15:05 PM 41.1192 -71.8283 46° Northeast 366 421 10,100 -313 Descending Boston Center
Fri 01:16:06 PM 41.1958 -71.7422 40° Northeast 315 362 9,600 -1,078 Descending Boston Center
Fri 01:17:13 PM 41.2681 -71.6669 38° Northeast 309 356 7,800 -1,594 Descending Boston Center
Fri 01:18:14 PM 41.3322 -71.6053 36° Northeast 285 328 6,200 -1,339 Descending Boston Center
Fri 01:19:14 PM 41.3964 -71.5464 35° Northeast 272 313 5,100 -595 Descending Boston Center
Fri 01:20:15 PM 41.4692 -71.5147 18° North 252 290 5,000 -47 Descending Boston Center
Fri 01:21:22 PM 41.5417 -71.4750 22° Northeast 266 306 5,000  Level Boston Center
Fri 01:22:22 PM 41.5956 -71.4242 35° Northeast 230 265 5,000 -53 Level Boston Center
Fri 01:23:16 PM 41.6411 -71.3817 35° Northeast 226 260 4,900 -1,096 Descending Boston Center
Fri 01:24:17 PM 41.6883 -71.3336 37° Northeast 214 246 2,900 -1,426 Descending Boston Center
Fri 01:25:18 PM 41.7486 -71.2964 25° Northeast 211 243 2,000 -536 Descending Boston Center
Fri 01:26:09 PM 41.7800 -71.3236 327° Northwest 203 234 1,900 -330 Descending Boston Center
Fri 01:27:07 PM 41.7828 -71.3767 274° West 149 171 1,400 -605 Descending Boston Center
Fri 01:28:08 PM 41.7517 -71.4050 214° Southwest 128 147 700 -689 Descending Boston Center

Login

Don't have an account? Register now (free) for customized features, flight alerts, and more!